sensor_id;sensor_type;location;lat;lon;timestamp;temperature;humidity
2623;DHT22;1321;48.690;9.022;2023-05-29T00:01:12;17.50;99.90
2623;DHT22;1321;48.690;9.022;2023-05-29T00:03:40;17.50;99.90
2623;DHT22;1321;48.690;9.022;2023-05-29T00:06:09;17.40;99.90
2623;DHT22;1321;48.690;9.022;2023-05-29T00:08:37;17.40;99.90
2623;DHT22;1321;48.690;9.022;2023-05-29T00:11:06;17.30;99.90
2623;DHT22;1321;48.690;9.022;2023-05-29T00:13:34;17.30;99.90
2623;DHT22;1321;48.690;9.022;2023-05-29T00:16:04;17.30;99.90
2623;DHT22;1321;48.690;9.022;2023-05-29T00:18:32;17.30;99.90
2623;DHT22;1321;48.690;9.022;2023-05-29T00:21:02;17.30;99.90
2623;DHT22;1321;48.690;9.022;2023-05-29T00:23:30;17.20;99.90
2623;DHT22;1321;48.690;9.022;2023-05-29T00:25:58;17.20;99.90
2623;DHT22;1321;48.690;9.022;2023-05-29T00:28:26;17.20;99.90
2623;DHT22;1321;48.690;9.022;2023-05-29T00:30:54;17.10;99.90
2623;DHT22;1321;48.690;9.022;2023-05-29T00:33:24;17.00;99.90
2623;DHT22;1321;48.690;9.022;2023-05-29T00:35:52;17.00;99.90
2623;DHT22;1321;48.690;9.022;2023-05-29T00:38:21;17.00;99.90
2623;DHT22;1321;48.690;9.022;2023-05-29T00:40:49;16.90;99.90
2623;DHT22;1321;48.690;9.022;2023-05-29T00:43:17;17.00;99.90
2623;DHT22;1321;48.690;9.022;2023-05-29T00:45:45;17.00;99.90
2623;DHT22;1321;48.690;9.022;2023-05-29T00:48:13;17.00;99.90
2623;DHT22;1321;48.690;9.022;2023-05-29T00:50:43;16.80;99.90
2623;DHT22;1321;48.690;9.022;2023-05-29T00:53:13;16.80;99.90
2623;DHT22;1321;48.690;9.022;2023-05-29T00:55:42;16.80;99.90
2623;DHT22;1321;48.690;9.022;2023-05-29T00:58:10;16.70;99.90
2623;DHT22;1321;48.690;9.022;2023-05-29T01:00:38;16.70;99.90
2623;DHT22;1321;48.690;9.022;2023-05-29T01:03:07;16.60;99.90
2623;DHT22;1321;48.690;9.022;2023-05-29T01:05:36;16.60;99.90
2623;DHT22;1321;48.690;9.022;2023-05-29T01:08:05;16.60;99.90
2623;DHT22;1321;48.690;9.022;2023-05-29T01:10:34;16.60;99.90
2623;DHT22;1321;48.690;9.022;2023-05-29T01:13:06;16.50;99.90
2623;DHT22;1321;48.690;9.022;2023-05-29T01:15:41;16.50;99.90
2623;DHT22;1321;48.690;9.022;2023-05-29T01:18:25;16.50;99.90
2623;DHT22;1321;48.690;9.022;2023-05-29T01:21:01;16.50;99.90
2623;DHT22;1321;48.690;9.022;2023-05-29T01:24:00;16.40;99.90
2623;DHT22;1321;48.690;9.022;2023-05-29T01:26:41;16.40;99.90
2623;DHT22;1321;48.690;9.022;2023-05-29T01:29:14;16.30;99.90
2623;DHT22;1321;48.690;9.022;2023-05-29T01:31:44;16.30;99.90
2623;DHT22;1321;48.690;9.022;2023-05-29T01:34:13;16.30;99.90
2623;DHT22;1321;48.690;9.022;2023-05-29T01:36:41;16.30;99.90
2623;DHT22;1321;48.690;9.022;2023-05-29T01:39:10;16.20;99.90
2623;DHT22;1321;48.690;9.022;2023-05-29T01:41:40;16.30;99.90
2623;DHT22;1321;48.690;9.022;2023-05-29T01:44:09;16.40;99.90
2623;DHT22;1321;48.690;9.022;2023-05-29T01:46:38;16.40;99.90
2623;DHT22;1321;48.690;9.022;2023-05-29T01:49:07;16.40;99.90
2623;DHT22;1321;48.690;9.022;2023-05-29T01:51:36;16.30;99.90
2623;DHT22;1321;48.690;9.022;2023-05-29T01:54:04;16.20;99.90
2623;DHT22;1321;48.690;9.022;2023-05-29T01:56:33;16.20;99.90
2623;DHT22;1321;48.690;9.022;2023-05-29T01:59:03;16.20;99.90
2623;DHT22;1321;48.690;9.022;2023-05-29T02:01:32;16.20;99.90
2623;DHT22;1321;48.690;9.022;2023-05-29T02:04:00;16.20;99.90
2623;DHT22;1321;48.690;9.022;2023-05-29T02:06:29;16.10;99.90
2623;DHT22;1321;48.690;9.022;2023-05-29T02:08:57;16.10;99.90
2623;DHT22;1321;48.690;9.022;2023-05-29T02:11:25;16.10;99.90
2623;DHT22;1321;48.690;9.022;2023-05-29T02:13:54;16.00;99.90
2623;DHT22;1321;48.690;9.022;2023-05-29T02:16:23;15.90;99.90
2623;DHT22;1321;48.690;9.022;2023-05-29T02:18:54;15.90;99.90
2623;DHT22;1321;48.690;9.022;2023-05-29T02:21:22;15.80;99.90
2623;DHT22;1321;48.690;9.022;2023-05-29T02:23:50;15.80;99.90
2623;DHT22;1321;48.690;9.022;2023-05-29T02:26:18;15.70;99.90
2623;DHT22;1321;48.690;9.022;2023-05-29T02:28:47;15.70;99.90
2623;DHT22;1321;48.690;9.022;2023-05-29T02:31:15;15.60;99.90
2623;DHT22;1321;48.690;9.022;2023-05-29T02:33:44;15.60;99.90
2623;DHT22;1321;48.690;9.022;2023-05-29T02:36:12;15.50;99.90
2623;DHT22;1321;48.690;9.022;2023-05-29T02:38:43;15.50;99.90
2623;DHT22;1321;48.690;9.022;2023-05-29T02:41:11;15.60;99.90
2623;DHT22;1321;48.690;9.022;2023-05-29T02:43:39;15.70;99.90
2623;DHT22;1321;48.690;9.022;2023-05-29T02:46:07;15.70;99.90
2623;DHT22;1321;48.690;9.022;2023-05-29T02:48:35;15.70;99.90
2623;DHT22;1321;48.690;9.022;2023-05-29T02:51:04;15.60;99.90
2623;DHT22;1321;48.690;9.022;2023-05-29T02:53:33;15.60;99.90
2623;DHT22;1321;48.690;9.022;2023-05-29T02:56:01;15.60;99.90
2623;DHT22;1321;48.690;9.022;2023-05-29T02:58:29;15.60;99.90
2623;DHT22;1321;48.690;9.022;2023-05-29T03:00:57;15.50;99.90
2623;DHT22;1321;48.690;9.022;2023-05-29T03:03:25;15.50;99.90
2623;DHT22;1321;48.690;9.022;2023-05-29T03:05:53;15.50;99.90
2623;DHT22;1321;48.690;9.022;2023-05-29T03:08:24;15.50;99.90
2623;DHT22;1321;48.690;9.022;2023-05-29T03:10:52;15.40;99.90
2623;DHT22;1321;48.690;9.022;2023-05-29T03:13:20;15.40;99.90
2623;DHT22;1321;48.690;9.022;2023-05-29T03:15:48;15.40;99.90
2623;DHT22;1321;48.690;9.022;2023-05-29T03:18:17;15.30;99.90
2623;DHT22;1321;48.690;9.022;2023-05-29T03:20:45;15.20;99.90
2623;DHT22;1321;48.690;9.022;2023-05-29T03:23:15;15.20;99.90
2623;DHT22;1321;48.690;9.022;2023-05-29T03:25:44;15.20;99.90
2623;DHT22;1321;48.690;9.022;2023-05-29T03:28:12;15.30;99.90
2623;DHT22;1321;48.690;9.022;2023-05-29T03:30:40;15.20;99.90
2623;DHT22;1321;48.690;9.022;2023-05-29T03:33:08;15.20;99.90
2623;DHT22;1321;48.690;9.022;2023-05-29T03:35:36;15.30;99.90
2623;DHT22;1321;48.690;9.022;2023-05-29T03:38:04;15.40;99.90
2623;DHT22;1321;48.690;9.022;2023-05-29T03:40:32;15.30;99.90
2623;DHT22;1321;48.690;9.022;2023-05-29T03:43:02;15.20;99.90
2623;DHT22;1321;48.690;9.022;2023-05-29T03:45:30;15.10;99.90
2623;DHT22;1321;48.690;9.022;2023-05-29T03:47:58;15.10;99.90
2623;DHT22;1321;48.690;9.022;2023-05-29T03:50:26;15.00;99.90
2623;DHT22;1321;48.690;9.022;2023-05-29T03:52:54;14.90;99.90
2623;DHT22;1321;48.690;9.022;2023-05-29T03:55:22;14.80;99.90
2623;DHT22;1321;48.690;9.022;2023-05-29T03:57:50;14.90;99.90
2623;DHT22;1321;48.690;9.022;2023-05-29T04:00:20;14.90;99.90
2623;DHT22;1321;48.690;9.022;2023-05-29T04:02:48;14.90;99.90
2623;DHT22;1321;48.690;9.022;2023-05-29T04:05:17;15.00;99.90
2623;DHT22;1321;48.690;9.022;2023-05-29T04:07:45;15.00;99.90
2623;DHT22;1321;48.690;9.022;2023-05-29T04:10:13;15.00;99.90
2623;DHT22;1321;48.690;9.022;2023-05-29T04:12:43;14.90;99.90
2623;DHT22;1321;48.690;9.022;2023-05-29T04:15:11;14.90;99.90
2623;DHT22;1321;48.690;9.022;2023-05-29T04:17:40;14.90;99.90
2623;DHT22;1321;48.690;9.022;2023-05-29T04:20:10;14.90;99.90
2623;DHT22;1321;48.690;9.022;2023-05-29T04:22:38;15.00;99.90
2623;DHT22;1321;48.690;9.022;2023-05-29T04:25:07;15.10;99.90
2623;DHT22;1321;48.690;9.022;2023-05-29T04:27:35;15.20;99.90
2623;DHT22;1321;48.690;9.022;2023-05-29T04:30:05;15.30;99.90
2623;DHT22;1321;48.690;9.022;2023-05-29T04:32:34;15.30;99.90
2623;DHT22;1321;48.690;9.022;2023-05-29T04:35:05;15.30;99.90
2623;DHT22;1321;48.690;9.022;2023-05-29T04:37:33;15.20;99.90
2623;DHT22;1321;48.690;9.022;2023-05-29T04:40:05;15.10;99.90
2623;DHT22;1321;48.690;9.022;2023-05-29T04:42:35;15.10;99.90
2623;DHT22;1321;48.690;9.022;2023-05-29T04:45:04;15.10;99.90
2623;DHT22;1321;48.690;9.022;2023-05-29T04:47:33;15.10;99.90
2623;DHT22;1321;48.690;9.022;2023-05-29T04:50:01;15.10;99.90
2623;DHT22;1321;48.690;9.022;2023-05-29T04:52:30;15.20;99.90
2623;DHT22;1321;48.690;9.022;2023-05-29T04:54:59;15.30;99.90
2623;DHT22;1321;48.690;9.022;2023-05-29T04:57:27;15.30;99.90
2623;DHT22;1321;48.690;9.022;2023-05-29T04:59:55;15.20;99.90
2623;DHT22;1321;48.690;9.022;2023-05-29T05:02:23;15.30;99.90
2623;DHT22;1321;48.690;9.022;2023-05-29T05:04:51;15.40;99.90
2623;DHT22;1321;48.690;9.022;2023-05-29T05:07:19;15.50;99.90
2623;DHT22;1321;48.690;9.022;2023-05-29T05:09:49;15.50;99.90
2623;DHT22;1321;48.690;9.022;2023-05-29T05:12:17;15.50;99.90
2623;DHT22;1321;48.690;9.022;2023-05-29T05:14:45;15.50;99.90
2623;DHT22;1321;48.690;9.022;2023-05-29T05:17:13;15.60;99.90
2623;DHT22;1321;48.690;9.022;2023-05-29T05:19:41;15.60;99.90
2623;DHT22;1321;48.690;9.022;2023-05-29T05:22:09;15.70;99.90
2623;DHT22;1321;48.690;9.022;2023-05-29T05:24:37;15.70;99.90
2623;DHT22;1321;48.690;9.022;2023-05-29T05:27:07;15.70;99.90
2623;DHT22;1321;48.690;9.022;2023-05-29T05:29:35;15.70;99.90
2623;DHT22;1321;48.690;9.022;2023-05-29T05:32:03;15.70;99.90
2623;DHT22;1321;48.690;9.022;2023-05-29T05:34:31;15.80;99.90
2623;DHT22;1321;48.690;9.022;2023-05-29T05:37:00;15.80;99.90
2623;DHT22;1321;48.690;9.022;2023-05-29T05:39:29;15.80;99.90
2623;DHT22;1321;48.690;9.022;2023-05-29T05:41:57;15.90;99.90
2623;DHT22;1321;48.690;9.022;2023-05-29T05:44:27;15.80;99.90
2623;DHT22;1321;48.690;9.022;2023-05-29T05:46:55;15.80;99.90
2623;DHT22;1321;48.690;9.022;2023-05-29T05:49:23;15.90;99.90
2623;DHT22;1321;48.690;9.022;2023-05-29T05:51:51;16.00;99.90
2623;DHT22;1321;48.690;9.022;2023-05-29T05:54:19;16.10;99.90
2623;DHT22;1321;48.690;9.022;2023-05-29T05:56:47;16.10;99.90
2623;DHT22;1321;48.690;9.022;2023-05-29T05:59:15;16.10;99.90
2623;DHT22;1321;48.690;9.022;2023-05-29T06:01:45;16.20;99.90
2623;DHT22;1321;48.690;9.022;2023-05-29T06:04:13;16.20;99.90
2623;DHT22;1321;48.690;9.022;2023-05-29T06:06:41;16.30;99.90
2623;DHT22;1321;48.690;9.022;2023-05-29T06:09:10;16.30;99.90
2623;DHT22;1321;48.690;9.022;2023-05-29T06:11:38;16.40;99.90
2623;DHT22;1321;48.690;9.022;2023-05-29T06:14:07;16.50;99.90
2623;DHT22;1321;48.690;9.022;2023-05-29T06:16:35;16.50;99.90
2623;DHT22;1321;48.690;9.022;2023-05-29T06:19:05;16.60;99.90
2623;DHT22;1321;48.690;9.022;2023-05-29T06:21:33;16.60;99.90
2623;DHT22;1321;48.690;9.022;2023-05-29T06:24:02;16.70;99.90
2623;DHT22;1321;48.690;9.022;2023-05-29T06:26:30;16.80;99.90
2623;DHT22;1321;48.690;9.022;2023-05-29T06:28:58;16.90;99.90
2623;DHT22;1321;48.690;9.022;2023-05-29T06:31:26;17.00;99.90
2623;DHT22;1321;48.690;9.022;2023-05-29T06:33:55;17.10;99.90
2623;DHT22;1321;48.690;9.022;2023-05-29T06:36:25;17.20;99.90
2623;DHT22;1321;48.690;9.022;2023-05-29T06:38:53;17.30;99.90
2623;DHT22;1321;48.690;9.022;2023-05-29T06:41:21;17.30;99.90
2623;DHT22;1321;48.690;9.022;2023-05-29T06:43:49;17.50;99.90
2623;DHT22;1321;48.690;9.022;2023-05-29T06:46:18;17.50;99.90
2623;DHT22;1321;48.690;9.022;2023-05-29T06:48:46;17.60;99.90
2623;DHT22;1321;48.690;9.022;2023-05-29T06:51:17;17.60;99.90
2623;DHT22;1321;48.690;9.022;2023-05-29T06:53:46;17.60;99.90
2623;DHT22;1321;48.690;9.022;2023-05-29T06:56:14;17.70;99.90
2623;DHT22;1321;48.690;9.022;2023-05-29T06:58:43;17.70;99.90
2623;DHT22;1321;48.690;9.022;2023-05-29T07:01:12;17.80;99.90
2623;DHT22;1321;48.690;9.022;2023-05-29T07:03:41;17.90;99.90
2623;DHT22;1321;48.690;9.022;2023-05-29T07:06:10;17.90;99.90
2623;DHT22;1321;48.690;9.022;2023-05-29T07:08:38;17.90;99.90
2623;DHT22;1321;48.690;9.022;2023-05-29T07:11:07;18.00;99.90
2623;DHT22;1321;48.690;9.022;2023-05-29T07:13:36;18.10;99.90
2623;DHT22;1321;48.690;9.022;2023-05-29T07:16:04;18.10;99.90
2623;DHT22;1321;48.690;9.022;2023-05-29T07:18:49;18.20;99.90
2623;DHT22;1321;48.690;9.022;2023-05-29T07:21:18;18.30;99.90
2623;DHT22;1321;48.690;9.022;2023-05-29T07:23:47;18.30;99.90
2623;DHT22;1321;48.690;9.022;2023-05-29T07:26:16;18.40;99.90
2623;DHT22;1321;48.690;9.022;2023-05-29T07:28:44;18.50;99.90
2623;DHT22;1321;48.690;9.022;2023-05-29T07:31:13;18.50;99.90
2623;DHT22;1321;48.690;9.022;2023-05-29T07:33:41;18.60;99.90
2623;DHT22;1321;48.690;9.022;2023-05-29T07:36:09;18.70;99.90
2623;DHT22;1321;48.690;9.022;2023-05-29T07:38:37;18.80;99.90
2623;DHT22;1321;48.690;9.022;2023-05-29T07:41:05;18.70;99.90
2623;DHT22;1321;48.690;9.022;2023-05-29T07:43:35;18.80;99.90
2623;DHT22;1321;48.690;9.022;2023-05-29T07:46:03;18.90;99.90
2623;DHT22;1321;48.690;9.022;2023-05-29T07:48:32;18.90;99.90
2623;DHT22;1321;48.690;9.022;2023-05-29T07:51:00;19.00;99.90
2623;DHT22;1321;48.690;9.022;2023-05-29T07:53:28;19.00;99.90
2623;DHT22;1321;48.690;9.022;2023-05-29T07:55:56;19.00;99.90
2623;DHT22;1321;48.690;9.022;2023-05-29T07:58:24;19.20;99.90
2623;DHT22;1321;48.690;9.022;2023-05-29T08:00:53;19.30;99.90
2623;DHT22;1321;48.690;9.022;2023-05-29T08:03:22;19.30;99.90
2623;DHT22;1321;48.690;9.022;2023-05-29T08:05:50;19.30;99.90
2623;DHT22;1321;48.690;9.022;2023-05-29T08:08:19;19.40;99.90
2623;DHT22;1321;48.690;9.022;2023-05-29T08:10:47;19.50;99.90
2623;DHT22;1321;48.690;9.022;2023-05-29T08:13:15;19.50;99.90
2623;DHT22;1321;48.690;9.022;2023-05-29T08:15:43;19.50;99.90
2623;DHT22;1321;48.690;9.022;2023-05-29T08:18:12;19.60;99.90
2623;DHT22;1321;48.690;9.022;2023-05-29T08:20:40;19.70;99.90
2623;DHT22;1321;48.690;9.022;2023-05-29T08:23:09;19.70;99.90
2623;DHT22;1321;48.690;9.022;2023-05-29T08:25:37;19.70;99.90
2623;DHT22;1321;48.690;9.022;2023-05-29T08:28:05;19.80;99.90
2623;DHT22;1321;48.690;9.022;2023-05-29T08:30:33;19.90;99.90
2623;DHT22;1321;48.690;9.022;2023-05-29T08:33:01;19.90;99.90
2623;DHT22;1321;48.690;9.022;2023-05-29T08:35:31;20.00;99.90
2623;DHT22;1321;48.690;9.022;2023-05-29T08:37:59;20.10;99.90
2623;DHT22;1321;48.690;9.022;2023-05-29T08:40:27;20.10;99.90
2623;DHT22;1321;48.690;9.022;2023-05-29T08:42:58;20.10;99.90
2623;DHT22;1321;48.690;9.022;2023-05-29T08:45:29;20.20;99.90
2623;DHT22;1321;48.690;9.022;2023-05-29T08:47:58;20.20;99.90
2623;DHT22;1321;48.690;9.022;2023-05-29T08:50:28;20.30;99.90
2623;DHT22;1321;48.690;9.022;2023-05-29T08:52:58;20.40;99.90
2623;DHT22;1321;48.690;9.022;2023-05-29T08:55:26;20.40;99.90
2623;DHT22;1321;48.690;9.022;2023-05-29T08:57:55;20.40;99.90
2623;DHT22;1321;48.690;9.022;2023-05-29T09:00:24;20.40;99.90
2623;DHT22;1321;48.690;9.022;2023-05-29T09:02:55;20.40;99.90
2623;DHT22;1321;48.690;9.022;2023-05-29T09:05:23;20.50;99.90
2623;DHT22;1321;48.690;9.022;2023-05-29T09:07:54;20.60;99.90
2623;DHT22;1321;48.690;9.022;2023-05-29T09:10:24;20.60;99.90
2623;DHT22;1321;48.690;9.022;2023-05-29T09:12:53;20.70;99.90
2623;DHT22;1321;48.690;9.022;2023-05-29T09:15:22;20.80;99.90
2623;DHT22;1321;48.690;9.022;2023-05-29T09:17:51;20.90;99.90
2623;DHT22;1321;48.690;9.022;2023-05-29T09:20:20;20.90;99.90
2623;DHT22;1321;48.690;9.022;2023-05-29T09:22:55;20.90;99.90
2623;DHT22;1321;48.690;9.022;2023-05-29T09:25:25;20.90;99.90
2623;DHT22;1321;48.690;9.022;2023-05-29T09:27:59;21.00;99.90
2623;DHT22;1321;48.690;9.022;2023-05-29T09:30:34;21.00;99.90
2623;DHT22;1321;48.690;9.022;2023-05-29T09:33:03;21.00;99.90
2623;DHT22;1321;48.690;9.022;2023-05-29T09:35:33;21.10;99.90
2623;DHT22;1321;48.690;9.022;2023-05-29T09:38:02;21.20;99.90
2623;DHT22;1321;48.690;9.022;2023-05-29T09:40:32;21.20;99.90
2623;DHT22;1321;48.690;9.022;2023-05-29T09:43:04;21.20;99.90
2623;DHT22;1321;48.690;9.022;2023-05-29T09:45:38;21.30;99.90
2623;DHT22;1321;48.690;9.022;2023-05-29T09:48:07;21.30;99.90
2623;DHT22;1321;48.690;9.022;2023-05-29T09:50:36;21.40;99.90
2623;DHT22;1321;48.690;9.022;2023-05-29T09:53:16;21.40;99.90
2623;DHT22;1321;48.690;9.022;2023-05-29T09:55:47;21.50;99.90
2623;DHT22;1321;48.690;9.022;2023-05-29T09:58:18;21.50;99.90
2623;DHT22;1321;48.690;9.022;2023-05-29T10:00:46;21.60;99.90
2623;DHT22;1321;48.690;9.022;2023-05-29T10:03:16;21.60;99.90
2623;DHT22;1321;48.690;9.022;2023-05-29T10:05:47;21.50;99.90
2623;DHT22;1321;48.690;9.022;2023-05-29T10:08:19;21.60;99.90
2623;DHT22;1321;48.690;9.022;2023-05-29T10:10:54;21.70;99.90
2623;DHT22;1321;48.690;9.022;2023-05-29T10:13:24;21.80;99.90
2623;DHT22;1321;48.690;9.022;2023-05-29T10:15:55;21.80;99.90
2623;DHT22;1321;48.690;9.022;2023-05-29T10:18:27;21.80;99.90
2623;DHT22;1321;48.690;9.022;2023-05-29T10:21:00;21.80;99.90
2623;DHT22;1321;48.690;9.022;2023-05-29T10:23:30;21.90;99.90
2623;DHT22;1321;48.690;9.022;2023-05-29T10:26:06;22.00;99.90
2623;DHT22;1321;48.690;9.022;2023-05-29T10:28:37;22.00;99.90
2623;DHT22;1321;48.690;9.022;2023-05-29T10:31:10;22.00;99.90
2623;DHT22;1321;48.690;9.022;2023-05-29T10:33:52;22.00;99.90
2623;DHT22;1321;48.690;9.022;2023-05-29T10:36:30;22.00;99.90
2623;DHT22;1321;48.690;9.022;2023-05-29T10:39:00;22.10;99.90
2623;DHT22;1321;48.690;9.022;2023-05-29T10:41:31;22.10;99.90
2623;DHT22;1321;48.690;9.022;2023-05-29T10:44:39;22.10;99.90
2623;DHT22;1321;48.690;9.022;2023-05-29T10:47:10;22.20;99.90
2623;DHT22;1321;48.690;9.022;2023-05-29T10:49:39;22.20;99.90
2623;DHT22;1321;48.690;9.022;2023-05-29T10:52:18;22.30;99.90
2623;DHT22;1321;48.690;9.022;2023-05-29T10:54:53;22.30;99.90
2623;DHT22;1321;48.690;9.022;2023-05-29T10:57:23;22.30;99.90
2623;DHT22;1321;48.690;9.022;2023-05-29T11:00:03;22.40;99.90
2623;DHT22;1321;48.690;9.022;2023-05-29T11:02:39;22.30;99.90
2623;DHT22;1321;48.690;9.022;2023-05-29T11:05:19;22.40;99.90
2623;DHT22;1321;48.690;9.022;2023-05-29T11:07:51;22.40;99.90
2623;DHT22;1321;48.690;9.022;2023-05-29T11:10:42;22.50;99.90
2623;DHT22;1321;48.690;9.022;2023-05-29T11:13:23;22.60;99.90
2623;DHT22;1321;48.690;9.022;2023-05-29T11:16:05;22.60;99.90
2623;DHT22;1321;48.690;9.022;2023-05-29T11:18:41;22.60;99.90
2623;DHT22;1321;48.690;9.022;2023-05-29T11:21:22;22.50;99.90
2623;DHT22;1321;48.690;9.022;2023-05-29T11:23:51;22.50;99.90
2623;DHT22;1321;48.690;9.022;2023-05-29T11:26:22;22.60;99.90
2623;DHT22;1321;48.690;9.022;2023-05-29T11:28:52;22.60;99.90
2623;DHT22;1321;48.690;9.022;2023-05-29T11:31:20;22.60;99.90
2623;DHT22;1321;48.690;9.022;2023-05-29T11:33:50;22.70;99.90
2623;DHT22;1321;48.690;9.022;2023-05-29T11:36:18;22.70;99.90
2623;DHT22;1321;48.690;9.022;2023-05-29T11:38:47;22.70;99.90
2623;DHT22;1321;48.690;9.022;2023-05-29T11:41:17;22.80;99.90
2623;DHT22;1321;48.690;9.022;2023-05-29T11:43:56;22.80;99.90
2623;DHT22;1321;48.690;9.022;2023-05-29T11:46:24;22.90;99.90
2623;DHT22;1321;48.690;9.022;2023-05-29T11:48:53;22.90;99.90
2623;DHT22;1321;48.690;9.022;2023-05-29T11:51:21;22.90;99.90
2623;DHT22;1321;48.690;9.022;2023-05-29T11:53:49;22.90;99.90
2623;DHT22;1321;48.690;9.022;2023-05-29T11:56:24;22.90;99.90
2623;DHT22;1321;48.690;9.022;2023-05-29T11:58:55;23.00;99.90
2623;DHT22;1321;48.690;9.022;2023-05-29T12:01:24;23.00;99.90
2623;DHT22;1321;48.690;9.022;2023-05-29T12:03:53;23.00;99.90
2623;DHT22;1321;48.690;9.022;2023-05-29T12:06:31;23.10;99.90
2623;DHT22;1321;48.690;9.022;2023-05-29T12:09:00;23.20;99.90
2623;DHT22;1321;48.690;9.022;2023-05-29T12:11:30;23.10;99.90
2623;DHT22;1321;48.690;9.022;2023-05-29T12:14:03;23.10;99.90
2623;DHT22;1321;48.690;9.022;2023-05-29T12:16:33;23.10;99.90
2623;DHT22;1321;48.690;9.022;2023-05-29T12:19:02;23.10;99.90
2623;DHT22;1321;48.690;9.022;2023-05-29T12:21:30;23.20;99.90
2623;DHT22;1321;48.690;9.022;2023-05-29T12:23:58;23.20;99.90
2623;DHT22;1321;48.690;9.022;2023-05-29T12:26:30;23.10;99.90
2623;DHT22;1321;48.690;9.022;2023-05-29T12:29:03;23.20;99.90
2623;DHT22;1321;48.690;9.022;2023-05-29T12:31:32;23.10;99.90
2623;DHT22;1321;48.690;9.022;2023-05-29T12:34:02;23.20;99.90
2623;DHT22;1321;48.690;9.022;2023-05-29T12:36:31;23.20;99.90
2623;DHT22;1321;48.690;9.022;2023-05-29T12:39:04;23.20;99.90
2623;DHT22;1321;48.690;9.022;2023-05-29T12:41:34;23.20;99.90
2623;DHT22;1321;48.690;9.022;2023-05-29T12:44:05;23.20;99.90
2623;DHT22;1321;48.690;9.022;2023-05-29T12:46:38;23.20;99.90
2623;DHT22;1321;48.690;9.022;2023-05-29T12:49:13;23.30;99.90
2623;DHT22;1321;48.690;9.022;2023-05-29T12:51:42;23.30;99.90
2623;DHT22;1321;48.690;9.022;2023-05-29T12:54:11;23.40;99.90
2623;DHT22;1321;48.690;9.022;2023-05-29T12:56:40;23.40;99.90
2623;DHT22;1321;48.690;9.022;2023-05-29T12:59:10;23.40;99.90
2623;DHT22;1321;48.690;9.022;2023-05-29T13:01:39;23.50;99.90
2623;DHT22;1321;48.690;9.022;2023-05-29T13:04:07;23.50;99.90
2623;DHT22;1321;48.690;9.022;2023-05-29T13:06:37;23.50;99.90
2623;DHT22;1321;48.690;9.022;2023-05-29T13:09:06;23.50;99.90
2623;DHT22;1321;48.690;9.022;2023-05-29T13:11:35;23.40;99.90
2623;DHT22;1321;48.690;9.022;2023-05-29T13:14:04;23.50;99.90
2623;DHT22;1321;48.690;9.022;2023-05-29T13:16:34;23.50;99.90
2623;DHT22;1321;48.690;9.022;2023-05-29T13:19:03;23.50;99.90
2623;DHT22;1321;48.690;9.022;2023-05-29T13:21:32;23.50;99.90
2623;DHT22;1321;48.690;9.022;2023-05-29T13:24:00;23.50;99.90
2623;DHT22;1321;48.690;9.022;2023-05-29T13:26:29;23.50;99.90
2623;DHT22;1321;48.690;9.022;2023-05-29T13:28:57;23.60;99.90
2623;DHT22;1321;48.690;9.022;2023-05-29T13:31:25;23.60;99.90
2623;DHT22;1321;48.690;9.022;2023-05-29T13:33:54;23.60;99.90
2623;DHT22;1321;48.690;9.022;2023-05-29T13:36:23;23.70;99.90
2623;DHT22;1321;48.690;9.022;2023-05-29T13:38:51;23.70;99.90
2623;DHT22;1321;48.690;9.022;2023-05-29T13:41:19;23.80;99.90
2623;DHT22;1321;48.690;9.022;2023-05-29T13:43:47;23.80;99.90
2623;DHT22;1321;48.690;9.022;2023-05-29T13:46:16;23.70;99.90
2623;DHT22;1321;48.690;9.022;2023-05-29T13:48:44;23.70;99.90
2623;DHT22;1321;48.690;9.022;2023-05-29T13:51:14;23.60;99.90
2623;DHT22;1321;48.690;9.022;2023-05-29T13:53:42;23.60;99.90
2623;DHT22;1321;48.690;9.022;2023-05-29T13:56:10;23.70;99.90
2623;DHT22;1321;48.690;9.022;2023-05-29T13:58:38;23.70;99.90
2623;DHT22;1321;48.690;9.022;2023-05-29T14:01:06;23.70;99.90
2623;DHT22;1321;48.690;9.022;2023-05-29T14:03:34;23.70;99.90
2623;DHT22;1321;48.690;9.022;2023-05-29T14:06:03;23.80;99.90
2623;DHT22;1321;48.690;9.022;2023-05-29T14:08:33;23.70;99.90
2623;DHT22;1321;48.690;9.022;2023-05-29T14:11:02;23.80;99.90
2623;DHT22;1321;48.690;9.022;2023-05-29T14:13:30;23.80;99.90
2623;DHT22;1321;48.690;9.022;2023-05-29T14:15:58;23.80;99.90
2623;DHT22;1321;48.690;9.022;2023-05-29T14:18:26;23.80;99.90
2623;DHT22;1321;48.690;9.022;2023-05-29T14:20:54;23.80;99.90
2623;DHT22;1321;48.690;9.022;2023-05-29T14:23:23;23.80;99.90
2623;DHT22;1321;48.690;9.022;2023-05-29T14:25:53;23.80;99.90
2623;DHT22;1321;48.690;9.022;2023-05-29T14:28:22;23.80;99.90
2623;DHT22;1321;48.690;9.022;2023-05-29T14:30:50;23.80;99.90
2623;DHT22;1321;48.690;9.022;2023-05-29T14:33:18;23.80;99.90
2623;DHT22;1321;48.690;9.022;2023-05-29T14:35:46;23.80;99.90
2623;DHT22;1321;48.690;9.022;2023-05-29T14:38:15;23.80;99.90
2623;DHT22;1321;48.690;9.022;2023-05-29T14:40:43;23.80;99.90
2623;DHT22;1321;48.690;9.022;2023-05-29T14:43:21;23.80;99.90
2623;DHT22;1321;48.690;9.022;2023-05-29T14:45:53;23.80;99.90
2623;DHT22;1321;48.690;9.022;2023-05-29T14:48:22;23.90;99.90
2623;DHT22;1321;48.690;9.022;2023-05-29T14:50:50;23.80;99.90
2623;DHT22;1321;48.690;9.022;2023-05-29T14:53:18;23.90;99.90
2623;DHT22;1321;48.690;9.022;2023-05-29T14:59:01;23.90;99.90
2623;DHT22;1321;48.690;9.022;2023-05-29T15:01:29;23.80;99.90
2623;DHT22;1321;48.690;9.022;2023-05-29T15:03:57;23.80;99.90
2623;DHT22;1321;48.690;9.022;2023-05-29T15:06:28;23.80;99.90
2623;DHT22;1321;48.690;9.022;2023-05-29T15:08:57;23.80;99.90
2623;DHT22;1321;48.690;9.022;2023-05-29T15:11:28;23.90;99.90
2623;DHT22;1321;48.690;9.022;2023-05-29T15:13:56;23.80;99.90
2623;DHT22;1321;48.690;9.022;2023-05-29T15:16:26;23.80;99.90
2623;DHT22;1321;48.690;9.022;2023-05-29T15:18:54;23.80;99.90
2623;DHT22;1321;48.690;9.022;2023-05-29T15:21:23;23.80;99.90
2623;DHT22;1321;48.690;9.022;2023-05-29T15:23:51;23.80;99.90
2623;DHT22;1321;48.690;9.022;2023-05-29T15:26:19;23.90;99.90
2623;DHT22;1321;48.690;9.022;2023-05-29T15:28:47;23.80;99.90
2623;DHT22;1321;48.690;9.022;2023-05-29T15:31:15;23.90;99.90
2623;DHT22;1321;48.690;9.022;2023-05-29T15:33:46;23.80;99.90
2623;DHT22;1321;48.690;9.022;2023-05-29T15:36:14;23.80;99.90
2623;DHT22;1321;48.690;9.022;2023-05-29T15:38:45;23.80;99.90
2623;DHT22;1321;48.690;9.022;2023-05-29T15:41:14;23.80;99.90
2623;DHT22;1321;48.690;9.022;2023-05-29T15:43:42;23.80;99.90
2623;DHT22;1321;48.690;9.022;2023-05-29T15:46:10;23.80;99.90
2623;DHT22;1321;48.690;9.022;2023-05-29T15:48:38;23.80;99.90
2623;DHT22;1321;48.690;9.022;2023-05-29T15:51:08;23.80;99.90
2623;DHT22;1321;48.690;9.022;2023-05-29T15:53:36;23.80;99.90
2623;DHT22;1321;48.690;9.022;2023-05-29T15:56:04;23.80;99.90
2623;DHT22;1321;48.690;9.022;2023-05-29T15:58:33;23.80;99.90
2623;DHT22;1321;48.690;9.022;2023-05-29T16:01:02;23.80;99.90
2623;DHT22;1321;48.690;9.022;2023-05-29T16:03:30;23.80;99.90
2623;DHT22;1321;48.690;9.022;2023-05-29T16:05:59;23.80;99.90
2623;DHT22;1321;48.690;9.022;2023-05-29T16:08:29;23.80;99.90
2623;DHT22;1321;48.690;9.022;2023-05-29T16:10:57;23.80;99.90
2623;DHT22;1321;48.690;9.022;2023-05-29T16:13:27;23.80;99.90
2623;DHT22;1321;48.690;9.022;2023-05-29T16:15:56;23.80;99.90
2623;DHT22;1321;48.690;9.022;2023-05-29T16:18:25;23.70;99.90
2623;DHT22;1321;48.690;9.022;2023-05-29T16:20:53;23.70;99.90